Time,TemperatureF,DewpointF,PressureIn,WindDirection,WindDirectionDegrees,WindSpeedMPH,WindSpeedGustMPH,Humidity,HourlyPrecipIn,Conditions,Clouds,dailyrainin,SoftwareType,DateUTC
2013-01-08 00:04:00,36.6,28.0,30.12,South,186,0.0,3.0,71,0.00,,,0.00,weatherlink.com 1.10,2013-01-08 06:04:00,
2013-01-08 00:19:00,36.0,28.0,30.12,South,186,0.0,0.0,72,0.00,,,0.00,weatherlink.com 1.10,2013-01-08 06:19:00,
2013-01-08 00:34:00,36.2,28.0,30.12,South,186,0.0,0.0,72,0.00,,,0.00,weatherlink.com 1.10,2013-01-08 06:34:00,
2013-01-08 00:49:00,36.8,28.0,30.13,South,186,4.0,5.0,71,0.00,,,0.00,weatherlink.com 1.10,2013-01-08 06:49:00,
2013-01-08 01:04:00,36.6,28.0,30.13,South,186,0.0,4.0,70,0.00,,,0.00,weatherlink.com 1.10,2013-01-08 07:04:00,
2013-01-08 01:19:00,35.8,27.0,30.13,South,186,0.0,1.0,71,0.00,,,0.00,weatherlink.com 1.10,2013-01-08 07:19:00,
2013-01-08 01:34:00,35.4,27.0,30.13,South,186,0.0,1.0,71,0.00,,,0.00,weatherlink.com 1.10,2013-01-08 07:34:00,
2013-01-08 01:49:00,35.6,27.0,30.13,South,186,0.0,2.0,71,0.00,,,0.00,weatherlink.com 1.10,2013-01-08 07:49:00,
2013-01-08 02:04:00,35.5,27.0,30.13,South,186,0.0,3.0,71,0.00,,,0.00,weatherlink.com 1.10,2013-01-08 08:04:00,
2013-01-08 02:19:00,34.7,27.0,30.13,South,186,0.0,3.0,72,0.00,,,0.00,weatherlink.com 1.10,2013-01-08 08:19:00,
2013-01-08 02:34:00,34.4,27.0,30.13,South,186,0.0,3.0,73,0.00,,,0.00,weatherlink.com 1.10,2013-01-08 08:34:00,
2013-01-08 02:49:00,34.3,26.0,30.13,South,186,3.0,5.0,73,0.00,,,0.00,weatherlink.com 1.10,2013-01-08 08:49:00,
2013-01-08 03:04:00,35.1,27.0,30.13,SSE,155,3.0,7.0,72,0.00,,,0.00,weatherlink.com 1.10,2013-01-08 09:04:00,
2013-01-08 03:19:00,35.3,27.0,30.13,SSE,153,0.0,7.0,71,0.00,,,0.00,weatherlink.com 1.10,2013-01-08 09:19:00,
2013-01-08 03:34:00,34.9,27.0,30.13,SSE,162,0.0,7.0,73,0.00,,,0.00,weatherlink.com 1.10,2013-01-08 09:34:00,
2013-01-08 03:49:00,34.6,27.0,30.12,SE,136,0.0,6.0,73,0.00,,,0.00,weatherlink.com 1.10,2013-01-08 09:49:00,
2013-01-08 04:04:00,34.6,27.0,30.12,SSE,148,3.0,7.0,73,0.00,,,0.00,weatherlink.com 1.10,2013-01-08 10:04:00,
2013-01-08 04:19:00,34.4,27.0,30.12,SSE,152,5.0,7.0,73,0.00,,,0.00,weatherlink.com 1.10,2013-01-08 10:19:00,
2013-01-08 04:34:00,33.9,26.0,30.12,SE,143,0.0,7.0,74,0.00,,,0.00,weatherlink.com 1.10,2013-01-08 10:34:00,
2013-01-08 04:49:00,34.3,26.0,30.11,SSE,165,2.0,8.0,73,0.00,,,0.00,weatherlink.com 1.10,2013-01-08 10:49:00,
2013-01-08 05:05:00,34.0,26.0,30.10,SSE,159,2.0,8.0,73,0.00,,,0.00,weatherlink.com 1.10,2013-01-08 11:05:00,
2013-01-08 05:20:00,34.2,26.0,30.11,SSE,156,4.0,5.0,72,0.00,,,0.00,weatherlink.com 1.10,2013-01-08 11:20:00,
2013-01-08 05:35:00,34.1,26.0,30.10,SE,133,0.0,8.0,72,0.00,,,0.00,weatherlink.com 1.10,2013-01-08 11:35:00,
2013-01-08 05:50:00,34.0,26.0,30.11,ESE,116,4.0,7.0,73,0.00,,,0.00,weatherlink.com 1.10,2013-01-08 11:50:00,
2013-01-08 06:05:00,33.7,26.0,30.11,SSE,166,6.0,9.0,73,0.00,,,0.00,weatherlink.com 1.10,2013-01-08 12:05:00,
2013-01-08 06:20:00,33.3,26.0,30.11,SSE,147,0.0,6.0,74,0.00,,,0.00,weatherlink.com 1.10,2013-01-08 12:20:00,
2013-01-08 06:35:00,32.8,26.0,30.12,SE,130,0.0,0.0,75,0.00,,,0.00,weatherlink.com 1.10,2013-01-08 12:35:00,
2013-01-08 06:50:00,32.6,26.0,30.13,SE,146,0.0,1.0,75,0.00,,,0.00,weatherlink.com 1.10,2013-01-08 12:50:00,
2013-01-08 07:05:00,32.8,26.0,30.12,SSE,155,2.0,6.0,75,0.00,,,0.00,weatherlink.com 1.10,2013-01-08 13:05:00,
2013-01-08 07:20:00,32.7,26.0,30.12,SE,145,4.0,6.0,75,0.00,,,0.00,weatherlink.com 1.10,2013-01-08 13:20:00,
2013-01-08 07:35:00,32.9,26.0,30.13,SSE,148,1.0,7.0,75,0.00,,,0.00,weatherlink.com 1.10,2013-01-08 13:35:00,
2013-01-08 07:50:00,33.7,26.0,30.13,SSE,148,3.0,9.0,74,0.00,,,0.00,weatherlink.com 1.10,2013-01-08 13:50:00,
2013-01-08 08:05:00,34.3,26.0,30.13,SSE,157,0.0,5.0,73,0.00,,,0.00,weatherlink.com 1.10,2013-01-08 14:05:00,
2013-01-08 08:20:00,34.7,27.0,30.13,SE,143,4.0,7.0,72,0.00,,,0.00,weatherlink.com 1.10,2013-01-08 14:20:00,
2013-01-08 08:35:00,34.6,26.0,30.14,South,181,0.0,4.0,72,0.00,,,0.00,weatherlink.com 1.10,2013-01-08 14:35:00,
2013-01-08 08:50:00,35.3,27.0,30.13,SSE,166,2.0,9.0,72,0.00,,,0.00,weatherlink.com 1.10,2013-01-08 14:50:00,
2013-01-08 09:05:00,36.9,28.0,30.13,SSE,155,3.0,8.0,70,0.00,,,0.00,weatherlink.com 1.10,2013-01-08 15:05:00,
2013-01-08 09:20:00,37.8,28.0,30.13,SSE,158,2.0,6.0,69,0.00,,,0.00,weatherlink.com 1.10,2013-01-08 15:20:00,
2013-01-08 09:35:00,39.6,29.0,30.13,SSE,155,5.0,8.0,67,0.00,,,0.00,weatherlink.com 1.10,2013-01-08 15:35:00,
2013-01-08 09:50:00,40.6,30.0,30.13,South,186,3.0,13.0,65,0.00,,,0.00,weatherlink.com 1.10,2013-01-08 15:50:00,
2013-01-08 10:05:00,42.5,31.0,30.13,SE,140,7.0,12.0,63,0.00,,,0.00,weatherlink.com 1.10,2013-01-08 16:05:00,
2013-01-08 10:20:00,43.3,31.0,30.13,SE,146,2.0,11.0,62,0.00,,,0.00,weatherlink.com 1.10,2013-01-08 16:20:00,
2013-01-08 10:35:00,44.2,31.0,30.13,SE,138,8.0,13.0,61,0.00,,,0.00,weatherlink.com 1.10,2013-01-08 16:35:00,
2013-01-08 10:50:00,44.8,32.0,30.12,SSE,161,7.0,13.0,62,0.00,,,0.00,weatherlink.com 1.10,2013-01-08 16:50:00,
2013-01-08 11:05:00,46.1,33.0,30.11,SSE,153,5.0,10.0,60,0.00,,,0.00,weatherlink.com 1.10,2013-01-08 17:05:00,
2013-01-08 11:20:00,47.0,33.0,30.10,SE,128,9.0,12.0,59,0.00,,,0.00,weatherlink.com 1.10,2013-01-08 17:20:00,
2013-01-08 11:35:00,47.7,34.0,30.09,South,181,3.0,13.0,59,0.00,,,0.00,weatherlink.com 1.10,2013-01-08 17:35:00,
2013-01-08 11:50:00,48.8,35.0,30.07,SSE,148,6.0,11.0,59,0.00,,,0.00,weatherlink.com 1.10,2013-01-08 17:50:00,
2013-01-08 12:05:00,50.5,35.0,30.06,SSW,193,8.0,10.0,56,0.00,,,0.00,weatherlink.com 1.10,2013-01-08 18:05:00,
2013-01-08 12:20:00,51.2,35.0,30.07,South,180,7.0,12.0,55,0.00,,,0.00,weatherlink.com 1.10,2013-01-08 18:20:00,
2013-01-08 12:36:00,53.1,36.0,30.07,South,174,11.0,16.0,53,0.00,,,0.00,weatherlink.com 1.10,2013-01-08 18:36:00,
2013-01-08 12:51:00,52.5,36.0,30.06,SSW,204,7.0,16.0,53,0.00,,,0.00,weatherlink.com 1.10,2013-01-08 18:51:00,
2013-01-08 13:06:00,53.2,36.0,30.06,South,182,9.0,13.0,52,0.00,,,0.00,weatherlink.com 1.10,2013-01-08 19:06:00,
2013-01-08 13:21:00,54.0,36.0,30.05,SE,141,3.0,15.0,50,0.00,,,0.00,weatherlink.com 1.10,2013-01-08 19:21:00,
2013-01-08 13:36:00,53.4,35.0,30.06,SSW,195,1.0,16.0,51,0.00,,,0.00,weatherlink.com 1.10,2013-01-08 19:36:00,
2013-01-08 13:51:00,52.9,35.0,30.05,SSE,158,5.0,14.0,52,0.00,,,0.00,weatherlink.com 1.10,2013-01-08 19:51:00,
2013-01-08 14:06:00,53.3,36.0,30.05,SSE,160,6.0,13.0,52,0.00,,,0.00,weatherlink.com 1.10,2013-01-08 20:06:00,
2013-01-08 14:21:00,53.7,36.0,30.05,South,170,5.0,13.0,52,0.00,,,0.00,weatherlink.com 1.10,2013-01-08 20:21:00,
2013-01-08 14:36:00,54.0,37.0,30.05,South,182,5.0,14.0,52,0.00,,,0.00,weatherlink.com 1.10,2013-01-08 20:36:00,
2013-01-08 14:51:00,53.6,37.0,30.05,South,184,3.0,15.0,53,0.00,,,0.00,weatherlink.com 1.10,2013-01-08 20:51:00,
2013-01-08 15:06:00,53.9,37.0,30.05,South,179,4.0,9.0,53,0.00,,,0.00,weatherlink.com 1.10,2013-01-08 21:06:00,
2013-01-08 15:21:00,53.4,37.0,30.06,South,179,2.0,11.0,54,0.00,,,0.00,weatherlink.com 1.10,2013-01-08 21:21:00,
2013-01-08 15:36:00,53.3,38.0,30.06,South,181,3.0,8.0,57,0.00,,,0.00,weatherlink.com 1.10,2013-01-08 21:36:00,
2013-01-08 15:51:00,50.2,41.0,30.07,South,182,2.0,8.0,72,0.00,,,0.00,weatherlink.com 1.10,2013-01-08 21:51:00,
2013-01-08 16:06:00,49.7,42.0,30.06,South,188,0.0,3.0,74,0.00,,,0.00,weatherlink.com 1.10,2013-01-08 22:06:00,
2013-01-08 16:21:00,49.9,42.0,30.07,South,188,0.0,0.0,74,0.00,,,0.00,weatherlink.com 1.10,2013-01-08 22:21:00,
2013-01-08 16:36:00,49.8,43.0,30.07,South,188,0.0,0.0,76,0.00,,,0.00,weatherlink.com 1.10,2013-01-08 22:36:00,
2013-01-08 16:51:00,49.7,42.0,30.07,South,188,0.0,0.0,76,0.00,,,0.00,weatherlink.com 1.10,2013-01-08 22:51:00,
2013-01-08 17:06:00,49.6,43.0,30.08,South,188,0.0,0.0,78,0.00,,,0.00,weatherlink.com 1.10,2013-01-08 23:06:00,
2013-01-08 17:21:00,48.8,43.0,30.09,South,188,0.0,0.0,81,0.00,,,0.00,weatherlink.com 1.10,2013-01-08 23:21:00,
2013-01-08 17:36:00,48.1,43.0,30.09,South,188,0.0,0.0,83,0.00,,,0.00,weatherlink.com 1.10,2013-01-08 23:36:00,
2013-01-08 17:51:00,48.2,44.0,30.09,South,188,0.0,0.0,84,0.00,,,0.00,weatherlink.com 1.10,2013-01-08 23:51:00,
2013-01-08 18:06:00,47.6,43.0,30.09,SE,130,0.0,5.0,85,0.00,,,0.00,weatherlink.com 1.10,2013-01-09 00:06:00,
2013-01-08 18:21:00,46.1,42.0,30.08,ESE,117,8.0,9.0,86,0.00,,,0.00,weatherlink.com 1.10,2013-01-09 00:21:00,
2013-01-08 18:36:00,45.1,42.0,30.10,SE,127,4.0,8.0,88,0.00,,,0.00,weatherlink.com 1.10,2013-01-09 00:36:00,
2013-01-08 18:51:00,44.7,42.0,30.10,ESE,113,0.0,9.0,89,0.00,,,0.00,weatherlink.com 1.10,2013-01-09 00:51:00,
2013-01-08 19:06:00,44.4,42.0,30.11,SE,124,0.0,5.0,90,0.00,,,0.00,weatherlink.com 1.10,2013-01-09 01:06:00,
2013-01-08 19:21:00,44.5,42.0,30.12,SE,126,0.0,3.0,91,0.00,,,0.00,weatherlink.com 1.10,2013-01-09 01:21:00,
2013-01-08 19:36:00,44.5,42.0,30.13,SE,134,2.0,6.0,91,0.00,,,0.00,weatherlink.com 1.10,2013-01-09 01:36:00,
2013-01-08 19:51:00,44.5,42.0,30.13,SE,134,1.0,8.0,92,0.00,,,0.00,weatherlink.com 1.10,2013-01-09 01:51:00,
2013-01-08 20:06:00,44.5,42.0,30.14,SE,134,0.0,3.0,92,0.00,,,0.00,weatherlink.com 1.10,2013-01-09 02:06:00,
2013-01-08 20:21:00,44.8,43.0,30.13,SE,134,0.0,0.0,93,0.00,,,0.00,weatherlink.com 1.10,2013-01-09 02:21:00,
2013-01-08 20:36:00,45.1,43.0,30.14,SE,134,0.0,0.0,93,0.00,,,0.00,weatherlink.com 1.10,2013-01-09 02:36:00,
2013-01-08 20:51:00,45.3,43.0,30.14,SE,134,0.0,1.0,93,0.00,,,0.00,weatherlink.com 1.10,2013-01-09 02:51:00,
2013-01-08 21:07:00,45.6,44.0,30.15,SE,134,0.0,0.0,93,0.00,,,0.00,weatherlink.com 1.10,2013-01-09 03:07:00,
2013-01-08 21:20:00,45.3,43.0,30.15,SE,134,0.0,0.0,93,0.00,,,0.00,weatherlink.com 1.10,2013-01-09 03:20:00,
2013-01-08 21:36:00,45.1,43.0,30.15,SE,134,0.0,2.0,93,0.05,,,0.05,weatherlink.com 1.10,2013-01-09 03:36:00,
2013-01-08 21:51:00,44.9,43.0,30.16,SE,134,0.0,0.0,93,0.08,,,0.08,weatherlink.com 1.10,2013-01-09 03:51:00,
2013-01-08 22:06:00,44.7,43.0,30.16,SE,134,0.0,0.0,94,0.10,,,0.10,weatherlink.com 1.10,2013-01-09 04:06:00,
2013-01-08 22:21:00,44.7,43.0,30.16,SE,134,0.0,0.0,94,0.09,,,0.10,weatherlink.com 1.10,2013-01-09 04:21:00,
2013-01-08 22:36:00,44.9,43.0,30.17,SE,134,0.0,0.0,94,0.05,,,0.10,weatherlink.com 1.10,2013-01-09 04:36:00,
2013-01-08 22:51:00,45.0,44.0,30.18,SE,134,0.0,0.0,95,0.02,,,0.10,weatherlink.com 1.10,2013-01-09 04:51:00,
2013-01-08 23:06:00,45.0,44.0,30.18,SE,134,0.0,0.0,95,0.00,,,0.10,weatherlink.com 1.10,2013-01-09 05:06:00,
2013-01-08 23:21:00,45.0,44.0,30.19,SE,134,0.0,0.0,95,0.00,,,0.10,weatherlink.com 1.10,2013-01-09 05:21:00,
2013-01-08 23:36:00,44.9,44.0,30.19,SE,134,0.0,0.0,95,0.00,,,0.10,weatherlink.com 1.10,2013-01-09 05:36:00,
2013-01-08 23:51:00,44.8,44.0,30.19,SE,128,2.0,5.0,95,0.00,,,0.10,weatherlink.com 1.10,2013-01-09 05:51:00,